Portada
METAR-TAF:

METAR-TAF

Aeroports :

Aeroport Internacional de Fujairah

Fujairah, Emirats Àrabs Units

latitud: 25-06N, longitud: 056-20E, altitud: 28 m

Observació

L'informe es va fer fa 19 minuts, a les 17:00 UTC
Vent 3 kt del Oest/Sud-Oest
Temperatura 35°C
Humitat 13%
Pressió 1003 hPa
Visibilitat 10 km o més
sense núvols per sota de 1500 mi sense presència de cumulonimbus.

METAR: OMFJ 191700Z 24003KT CAVOK 35/03 Q1002 A2961

Hora: 21:19 (17:19 UTC)

Pronòstic

L'informe es va fer fa 6 hores i 19 minuts, a les 11:00 UTC
Pronòstic vàlid del 19 a les 12 UTC al 20 a les 18 UTC
Vent 8 kt del Est
Visibilitat: 8000 m
Evolucionant progressivament
l' 19 a les 14 UTC al 16 a les 16 UTC
Vent 3 kt amb direcció variable
Temporalment
l' 19 a les 19 UTC al 20 a les 03 UTC
Vent 6 kt del Oest/Nord-Oest
Evolucionant progressivament
l' 20 a les 04 UTC al 20 a les 06 UTC
Vent 8 kt del Est

TAF: OMFJ 191100Z 1912/2018 10008KT 8000 NSC BECMG 1914/1616 VRB03KT TEMPO 1919/2003 30006KT BECMG 2004/2006 09008KT

Observacions i pronòstics meteorològics de més de 4000 aeroports (METAR i TAF).

Les estacions disponibles són els punts grocs i vermells al mapa.

Posi el ratolí al punt desitjat per veure el nom de l'estació.

Feu clic per veure les observacions i els pronòstics meteorològics.

Per canviar el mapa: feu clic els botons verds amb una creu de color negre per apropar; al botó verd amb un guió per allunyar la imatge; o en les fletxes verdes per a mapes adjacents.


METAR-TAF: